Time;durP1;ratioP1;P1;durP2;ratioP2;P2;SDS_P1;SDS_P2;PMS_P1;PMS_P2;Temp;Humidity;BMP_temperature;BMP_pressure;BME280_temperature;BME280_humidity;BME280_pressure;Samples;Min_cycle;Max_cycle;Signal;HPM_P1;HPM_P2
2021/01/31 00:00:31;;;;;;;4.97;4.40;;;2.90;99.90;;;;;;5014608;28;20448;-90
2021/01/31 00:02:58;;;;;;;5.70;4.93;;;3.20;99.90;;;;;;5014557;28;20506;-90
2021/01/31 00:05:25;;;;;;;5.73;4.50;;;2.90;99.90;;;;;;5014962;28;20444;-91
2021/01/31 00:07:53;;;;;;;4.90;4.40;;;3.00;99.90;;;;;;5014196;28;20495;-90
2021/01/31 00:10:22;;;;;;;7.90;5.67;;;3.20;99.90;;;;;;5013045;28;21030;-90
2021/01/31 00:12:49;;;;;;;5.50;3.93;;;;;;;;;;5014835;28;20445;-91
2021/01/31 00:15:17;;;;;;;4.73;4.20;;;3.50;99.90;;;;;;5014492;28;20452;-90
2021/01/31 00:17:44;;;;;;;5.73;4.93;;;;;;;;;;5014762;28;20451;-90
2021/01/31 00:20:12;;;;;;;5.07;4.57;;;2.90;99.90;;;;;;5014596;28;20515;-91
2021/01/31 00:22:39;;;;;;;5.90;4.33;;;;;;;;;;5014587;28;20471;-91
2021/01/31 00:25:08;;;;;;;6.63;5.37;;;2.60;99.90;;;;;;5014398;28;20463;-91
2021/01/31 00:27:35;;;;;;;6.63;5.57;;;;;;;;;;5014875;28;20844;-90
2021/01/31 00:30:01;;;;;;;5.30;4.50;;;;;;;;;;5014280;28;20455;-91
2021/01/31 00:32:29;;;;;;;5.70;4.50;;;3.10;99.90;;;;;;5014461;28;20483;-91
2021/01/31 00:34:57;;;;;;;6.80;5.03;;;2.80;99.90;;;;;;5016941;28;20858;-90
2021/01/31 00:37:24;;;;;;;6.50;4.70;;;2.70;99.90;;;;;;5022720;28;20475;-90
2021/01/31 00:39:51;;;;;;;4.67;4.27;;;2.80;99.90;;;;;;5014338;28;20459;-91
2021/01/31 00:42:21;;;;;;;6.17;5.30;;;2.60;99.90;;;;;;5014268;28;20458;-91
2021/01/31 00:44:51;;;;;;;5.20;4.70;;;2.80;99.90;;;;;;5014438;28;20449;-90
2021/01/31 00:47:18;;;;;;;5.77;5.13;;;2.70;99.90;;;;;;5014670;28;20518;-89
2021/01/31 00:49:45;;;;;;;5.47;4.97;;;;;;;;;;5014550;28;20448;-92
2021/01/31 00:52:11;;;;;;;6.60;5.70;;;3.00;99.90;;;;;;5023374;28;20458;-90
2021/01/31 00:54:37;;;;;;;6.50;5.20;;;2.80;99.90;;;;;;5028162;28;20456;-90
2021/01/31 00:57:04;;;;;;;7.13;5.87;;;2.70;99.90;;;;;;5016083;28;20603;-91
2021/01/31 00:59:32;;;;;;;8.10;5.27;;;;;;;;;;5011603;28;20456;-92
2021/01/31 01:01:58;;;;;;;7.97;5.67;;;2.50;99.90;;;;;;5013764;28;20877;-91
2021/01/31 01:04:25;;;;;;;6.87;5.03;;;2.80;99.90;;;;;;5015206;28;20461;-91
2021/01/31 01:06:51;;;;;;;5.87;5.27;;;;;;;;;;5013408;28;20496;-91
2021/01/31 01:09:18;;;;;;;6.70;5.70;;;;;;;;;;5013335;28;20472;-90
2021/01/31 01:11:45;;;;;;;6.47;5.40;;;;;;;;;;5013462;28;20440;-92
2021/01/31 01:14:11;;;;;;;10.33;6.60;;;;;;;;;;5014035;28;20452;-92
2021/01/31 01:16:39;;;;;;;7.37;6.20;;;2.60;99.90;;;;;;5014180;28;20460;-91
2021/01/31 01:19:05;;;;;;;8.80;6.10;;;;;;;;;;5013724;28;20448;-93
2021/01/31 01:21:32;;;;;;;6.47;5.77;;;2.50;99.90;;;;;;5014076;28;20907;-91
2021/01/31 01:23:59;;;;;;;7.00;5.87;;;2.40;99.90;;;;;;5027966;28;20464;-92
2021/01/31 01:26:28;;;;;;;7.50;6.07;;;2.60;99.90;;;;;;5020287;28;20835;-91
2021/01/31 01:28:54;;;;;;;9.37;6.50;;;2.80;99.90;;;;;;5013845;28;20483;-91
2021/01/31 01:31:21;;;;;;;7.27;6.53;;;;;;;;;;5014149;28;20452;-91
2021/01/31 01:33:48;;;;;;;7.63;6.50;;;2.90;99.90;;;;;;5015096;28;21175;-91
2021/01/31 01:36:14;;;;;;;9.00;6.90;;;2.80;99.90;;;;;;5014005;28;20449;-91
2021/01/31 01:38:41;;;;;;;8.10;6.70;;;;;;;;;;5012881;28;20459;-92
2021/01/31 01:41:07;;;;;;;8.40;7.20;;;;;;;;;;5014102;28;20511;-91
2021/01/31 01:43:34;;;;;;;10.10;7.80;;;2.70;99.90;;;;;;5014886;28;20461;-93
2021/01/31 01:46:27;;;;;;;7.33;6.53;;;2.60;99.90;;;;;;5013896;28;20445;-92
2021/01/31 01:49:01;;;;;;;9.10;7.93;;;2.40;99.90;;;;;;5013940;28;20455;-91
2021/01/31 01:51:32;;;;;;;8.00;7.20;;;2.80;99.90;;;;;;5014885;28;20456;-90
2021/01/31 01:54:01;;;;;;;10.33;7.30;;;2.60;99.90;;;;;;5013229;28;20464;-92
2021/01/31 01:56:34;;;;;;;8.33;6.83;;;2.70;99.90;;;;;;5013929;28;20440;-91
2021/01/31 01:59:01;;;;;;;11.47;6.70;;;;;;;;;;5014378;28;20550;-91
2021/01/31 02:01:28;;;;;;;11.60;7.77;;;;;;;;;;5017452;28;20451;-91
2021/01/31 02:03:58;;;;;;;8.93;7.33;;;2.60;99.90;;;;;;5017756;28;20436;-92
2021/01/31 02:06:26;;;;;;;10.80;7.83;;;2.50;99.90;;;;;;5028901;28;20488;-91
2021/01/31 02:08:55;;;;;;;8.60;7.27;;;2.70;99.90;;;;;;5019756;28;20452;-92
2021/01/31 02:11:22;;;;;;;8.73;6.90;;;2.60;99.90;;;;;;5017917;28;20448;-92
2021/01/31 02:13:54;;;;;;;9.30;7.17;;;2.60;99.90;;;;;;5017214;28;20456;-93
2021/01/31 02:16:28;;;;;;;9.80;7.97;;;2.50;99.90;;;;;;5017304;28;20452;-92
2021/01/31 02:19:03;;;;;;;11.80;8.07;;;2.60;99.90;;;;;;5017297;28;20857;-92
2021/01/31 02:21:58;;;;;;;12.77;8.40;;;2.60;99.90;;;;;;5017251;28;20951;-92
2021/01/31 02:25:15;;;;;;;9.07;6.60;;;3.00;99.90;;;;;;5016136;28;20456;-91
2021/01/31 02:28:02;;;;;;;9.90;7.63;;;2.70;99.90;;;;;;4980192;28;20492;-92
2021/01/31 02:30:54;;;;;;;10.23;8.40;;;2.90;99.90;;;;;;5017057;28;20440;-91
2021/01/31 02:33:45;;;;;;;9.60;7.93;;;2.60;99.90;;;;;;5016987;28;20455;-91
2021/01/31 02:36:22;;;;;;;9.33;7.97;;;2.50;99.90;;;;;;5016685;28;20448;-92
2021/01/31 02:39:01;;;;;;;11.50;8.97;;;2.60;99.90;;;;;;5016167;28;20495;-91
2021/01/31 02:41:31;;;;;;;9.07;7.43;;;1.50;99.90;;;;;;5016532;28;20444;-92
2021/01/31 02:43:58;;;;;;;9.80;7.83;;;2.60;99.90;;;;;;5015048;28;20507;-91
2021/01/31 02:46:32;;;;;;;8.10;7.03;;;2.60;99.90;;;;;;5014129;28;20507;-93
2021/01/31 02:49:05;;;;;;;10.77;8.10;;;2.50;99.90;;;;;;5016558;28;20428;-92
2021/01/31 02:51:37;;;;;;;11.10;7.37;;;3.20;99.90;;;;;;5016264;28;20444;-92
2021/01/31 02:54:07;;;;;;;12.40;7.40;;;2.70;99.90;;;;;;5015741;28;20453;-92
2021/01/31 02:56:37;;;;;;;9.70;7.70;;;2.60;99.90;;;;;;5017667;28;20464;-92
2021/01/31 02:59:08;;;;;;;9.10;7.70;;;2.50;99.90;;;;;;5015984;28;20526;-91
2021/01/31 03:01:40;;;;;;;10.20;7.90;;;2.40;99.90;;;;;;5016085;28;20868;-92
2021/01/31 03:04:12;;;;;;;12.83;7.60;;;2.70;99.90;;;;;;5016473;28;20775;-91
2021/01/31 03:06:46;;;;;;;9.90;8.10;;;2.60;99.90;;;;;;5016717;28;20538;-92
2021/01/31 03:09:17;;;;;;;9.63;7.90;;;2.20;99.90;;;;;;5018754;28;20488;-92
2021/01/31 03:11:49;;;;;;;10.40;8.80;;;2.40;99.90;;;;;;5015720;28;20864;-92
2021/01/31 03:14:23;;;;;;;8.37;6.60;;;2.50;99.90;;;;;;5016226;28;20460;-93
2021/01/31 03:16:55;;;;;;;8.90;7.00;;;2.20;99.90;;;;;;5014026;28;20471;-91
2021/01/31 03:19:28;;;;;;;9.70;7.57;;;2.40;99.90;;;;;;5016001;28;20455;-92
2021/01/31 03:21:58;;;;;;;14.10;8.37;;;2.30;99.90;;;;;;5016110;28;20464;-93
2021/01/31 03:24:31;;;;;;;10.77;8.83;;;2.00;99.90;;;;;;5015116;28;20429;-92
2021/01/31 03:27:01;;;;;;;11.40;8.00;;;2.20;99.90;;;;;;5017195;28;20643;-92
2021/01/31 03:29:28;;;;;;;10.90;8.33;;;;;;;;;;5016481;28;20530;-93
2021/01/31 03:31:57;;;;;;;11.83;8.83;;;2.20;99.90;;;;;;5016191;28;20445;-91
2021/01/31 03:34:29;;;;;;;8.83;7.47;;;2.20;99.90;;;;;;5020780;28;20983;-90
2021/01/31 03:37:00;;;;;;;8.30;6.60;;;2.00;99.90;;;;;;5027262;28;20441;-92
2021/01/31 03:39:28;;;;;;;9.57;7.57;;;1.90;99.90;;;;;;5015952;28;20441;-92
2021/01/31 03:41:54;;;;;;;11.07;8.03;;;;;;;;;;5031240;28;20460;-91
2021/01/31 03:44:21;;;;;;;10.00;8.20;;;;;;;;;;5027558;28;20514;-92
2021/01/31 03:46:53;;;;;;;9.93;7.53;;;2.10;99.90;;;;;;5015896;28;20496;-93
2021/01/31 03:49:25;;;;;;;9.57;7.77;;;2.10;99.90;;;;;;5016959;28;20464;-92
2021/01/31 03:51:53;;;;;;;9.53;8.00;;;2.40;99.90;;;;;;5016157;28;20475;-92
2021/01/31 03:54:19;;;;;;;12.00;8.10;;;;;;;;;;5016390;28;20464;-92
2021/01/31 03:56:49;;;;;;;9.17;7.67;;;2.00;99.90;;;;;;5015261;28;20452;-92
2021/01/31 03:59:21;;;;;;;8.20;7.07;;;2.10;99.90;;;;;;5015713;28;20452;-91
2021/01/31 04:01:49;;;;;;;11.63;8.50;;;2.20;99.90;;;;;;5015634;28;20787;-92
2021/01/31 04:04:19;;;;;;;9.00;7.40;;;2.10;99.90;;;;;;5015938;28;20458;-95
2021/01/31 04:06:50;;;;;;;9.80;7.73;;;2.20;99.90;;;;;;5017009;28;20480;-92
2021/01/31 04:09:18;;;;;;;10.97;7.87;;;2.20;99.90;;;;;;5012068;28;20485;-92
2021/01/31 04:11:46;;;;;;;11.73;7.90;;;2.20;99.90;;;;;;5015602;28;20451;-92
2021/01/31 04:14:19;;;;;;;8.30;7.00;;;0.90;99.90;;;;;;5015454;28;20432;-90
2021/01/31 04:16:49;;;;;;;8.00;7.20;;;2.20;99.90;;;;;;5016826;28;20445;-91
2021/01/31 04:19:16;;;;;;;9.30;7.30;;;;;;;;;;5032625;28;20440;-92
2021/01/31 04:21:43;;;;;;;9.00;7.20;;;;;;;;;;5026685;28;20440;-93
2021/01/31 04:24:09;;;;;;;8.03;7.10;;;2.10;99.90;;;;;;5014488;28;20982;-93
2021/01/31 04:26:37;;;;;;;10.83;7.67;;;2.10;99.90;;;;;;5016641;28;21006;-93
2021/01/31 04:29:04;;;;;;;9.73;7.40;;;2.20;99.90;;;;;;5014860;28;20455;-92
2021/01/31 04:31:31;;;;;;;12.00;8.83;;;;;;;;;;5015542;28;20463;-94
2021/01/31 04:33:57;;;;;;;11.17;8.90;;;;;;;;;;5014538;28;20979;-95
2021/01/31 04:36:25;;;;;;;13.83;9.37;;;2.20;99.90;;;;;;5015929;28;20514;-91
2021/01/31 04:38:52;;;;;;;10.80;9.00;;;;;;;;;;5014056;28;20452;-92
2021/01/31 04:41:18;;;;;;;11.07;8.63;;;;;;;;;;5015097;28;20467;-93
2021/01/31 04:43:48;;;;;;;11.40;8.73;;;2.40;99.90;;;;;;5015002;28;20448;-93
2021/01/31 04:46:19;;;;;;;11.57;9.50;;;2.20;99.90;;;;;;5014943;28;20462;-92
2021/01/31 04:48:56;;;;;;;12.20;9.20;;;2.30;99.90;;;;;;5014607;28;20495;-93
2021/01/31 04:51:32;;;;;;;10.90;8.97;;;2.20;99.90;;;;;;5014505;28;20444;-93
2021/01/31 04:54:12;;;;;;;11.43;8.90;;;2.10;99.90;;;;;;5014026;28;20459;-93
2021/01/31 04:56:51;;;;;;;12.50;8.70;;;2.10;99.90;;;;;;5014871;28;20958;-94
2021/01/31 04:59:28;;;;;;;10.23;8.40;;;2.10;99.90;;;;;;5015165;28;20491;-93
2021/01/31 05:02:01;;;;;;;12.90;10.10;;;2.10;99.90;;;;;;5015134;28;20455;-92
2021/01/31 05:04:28;;;;;;;13.60;9.83;;;;;;;;;;5024825;28;20928;-91
2021/01/31 05:07:01;;;;;;;14.80;10.60;;;2.10;99.90;;;;;;5022415;28;21029;-93
2021/01/31 05:09:28;;;;;;;12.90;10.23;;;;;;;;;;5012729;28;20476;-93
2021/01/31 05:11:59;;;;;;;13.90;10.37;;;2.10;99.90;;;;;;5014975;28;20456;-93
2021/01/31 05:14:45;;;;;;;13.07;9.17;;;2.10;99.90;;;;;;5014466;28;20437;-92
2021/01/31 05:17:13;;;;;;;10.87;9.30;;;2.10;99.90;;;;;;5015655;28;20463;-93
2021/01/31 05:19:40;;;;;;;13.70;9.60;;;2.00;99.90;;;;;;5012986;28;20530;-93
2021/01/31 05:22:06;;;;;;;15.30;10.70;;;;;;;;;;5014597;28;20452;-93
2021/01/31 05:24:33;;;;;;;13.43;10.40;;;;;;;;;;5013697;28;20448;-92
2021/01/31 05:27:02;;;;;;;13.80;9.93;;;2.00;99.90;;;;;;5014397;28;20986;-92
2021/01/31 05:29:33;;;;;;;10.70;8.60;;;1.90;99.90;;;;;;5014497;28;20452;-92
2021/01/31 05:32:04;;;;;;;15.63;9.90;;;2.00;99.90;;;;;;5014468;28;20912;-92
2021/01/31 05:34:33;;;;;;;12.53;9.90;;;1.80;99.90;;;;;;5017634;28;20448;-93
2021/01/31 05:37:01;;;;;;;19.03;10.37;;;2.00;99.90;;;;;;5018199;28;20441;-92
2021/01/31 05:39:39;;;;;;;11.40;9.40;;;2.00;99.90;;;;;;5017686;28;20432;-92
2021/01/31 05:42:09;;;;;;;14.93;10.57;;;2.10;99.90;;;;;;5019239;28;20455;-96
2021/01/31 05:44:37;;;;;;;12.10;9.90;;;2.10;99.90;;;;;;5019215;28;20448;-94
2021/01/31 05:47:17;;;;;;;12.93;9.30;;;2.10;99.90;;;;;;5018183;28;20514;-93
2021/01/31 05:49:45;;;;;;;12.00;9.30;;;2.10;99.90;;;;;;5019317;28;20460;-94
2021/01/31 05:52:35;;;;;;;12.87;9.97;;;2.40;99.90;;;;;;5018216;28;20444;-93
2021/01/31 05:55:07;;;;;;;13.23;9.57;;;2.20;99.90;;;;;;5017571;28;20456;-92
2021/01/31 05:57:35;;;;;;;11.10;9.57;;;2.20;99.90;;;;;;5019386;28;20525;-89
2021/01/31 06:00:19;;;;;;;14.00;10.43;;;2.10;99.90;;;;;;5041939;28;20460;-92
2021/01/31 06:02:58;;;;;;;13.77;10.50;;;2.00;99.90;;;;;;5020687;28;20928;-93
2021/01/31 06:05:24;;;;;;;14.43;10.77;;;;;;;;;;5017952;28;20428;-92
2021/01/31 06:08:03;;;;;;;14.37;9.90;;;2.20;99.90;;;;;;5017504;28;20487;-92
2021/01/31 06:10:31;;;;;;;12.80;10.10;;;2.10;99.90;;;;;;5017512;28;20467;-92
2021/01/31 06:13:08;;;;;;;14.30;10.30;;;2.40;99.90;;;;;;5017942;28;20463;-92
2021/01/31 06:15:45;;;;;;;13.10;9.90;;;2.10;99.90;;;;;;5017765;28;20451;-94
2021/01/31 06:18:17;;;;;;;15.43;10.67;;;2.00;99.90;;;;;;5018070;28;20505;-93
2021/01/31 06:20:44;;;;;;;16.40;10.50;;;;;;;;;;5017951;28;20452;-94
2021/01/31 06:23:30;;;;;;;15.20;10.60;;;2.10;99.90;;;;;;5017822;28;20935;-93
2021/01/31 06:25:57;;;;;;;16.30;10.57;;;;;;;;;;5016998;28;21140;-92
2021/01/31 06:28:28;;;;;;;12.37;9.50;;;2.10;99.90;;;;;;5017266;28;20563;-93
2021/01/31 06:31:05;;;;;;;12.43;10.00;;;2.10;99.90;;;;;;5014740;28;20436;-93
2021/01/31 06:33:32;;;;;;;12.97;9.73;;;;;;;;;;5027376;28;20449;-94
2021/01/31 06:36:13;;;;;;;14.67;10.90;;;2.10;99.90;;;;;;5026506;28;20436;-91
2021/01/31 06:38:53;;;;;;;14.23;10.23;;;2.10;99.90;;;;;;5017656;28;20804;-92
2021/01/31 06:41:36;;;;;;;12.50;9.47;;;2.10;99.90;;;;;;5017266;28;20486;-93
2021/01/31 06:44:08;;;;;;;13.63;10.13;;;2.20;99.90;;;;;;5017466;28;20444;-93
2021/01/31 06:46:43;;;;;;;13.00;9.67;;;2.10;99.90;;;;;;5016599;28;20432;-93
2021/01/31 06:49:27;;;;;;;14.60;10.13;;;2.10;99.90;;;;;;5017308;28;20456;-93
2021/01/31 06:52:12;;;;;;;12.57;9.70;;;2.20;99.90;;;;;;5015950;28;20456;-93
2021/01/31 06:55:01;;;;;;;13.80;9.87;;;2.20;99.90;;;;;;5018469;28;20460;-93
2021/01/31 06:57:42;;;;;;;13.93;10.17;;;2.10;99.90;;;;;;5017471;28;20871;-96
2021/01/31 07:00:31;;;;;;;14.27;9.77;;;2.30;99.90;;;;;;5016946;28;20448;-93
2021/01/31 07:03:15;;;;;;;15.80;10.27;;;2.30;99.90;;;;;;5017421;28;20982;-91
2021/01/31 07:06:07;;;;;;;14.63;10.23;;;2.10;99.90;;;;;;5016677;28;20456;-91
2021/01/31 07:08:56;;;;;;;11.73;9.37;;;2.30;99.90;;;;;;5017410;28;20847;-91
2021/01/31 07:11:32;;;;;;;14.83;10.10;;;2.10;99.90;;;;;;5002993;28;20503;-90
2021/01/31 07:14:16;;;;;;;18.00;9.60;;;2.00;99.90;;;;;;5016356;28;20432;-92
2021/01/31 07:16:47;;;;;;;13.97;9.27;;;1.70;99.90;;;;;;5016426;28;20456;-91
2021/01/31 07:19:18;;;;;;;14.20;10.10;;;2.30;99.90;;;;;;5013987;28;20453;-91
2021/01/31 07:21:55;;;;;;;14.57;9.57;;;1.90;99.90;;;;;;5016549;28;20463;-91
2021/01/31 07:24:25;;;;;;;16.80;9.60;;;2.10;99.90;;;;;;5015456;28;20447;-90
2021/01/31 07:26:55;;;;;;;13.07;9.90;;;2.20;99.90;;;;;;4982787;28;21039;-91
2021/01/31 07:29:24;;;;;;;12.90;9.30;;;2.20;99.90;;;;;;5016804;28;20448;-92
2021/01/31 07:31:51;;;;;;;17.57;10.43;;;;;;;;;;5018648;28;20449;-92
2021/01/31 07:34:29;;;;;;;14.07;9.73;;;2.10;99.90;;;;;;5017429;28;20441;-89
2021/01/31 07:37:14;;;;;;;13.10;9.70;;;2.10;99.90;;;;;;5017689;28;20456;-90
2021/01/31 07:40:00;;;;;;;13.90;10.63;;;2.40;99.90;;;;;;5019245;28;20456;-91
2021/01/31 07:42:29;;;;;;;14.30;10.27;;;2.20;99.90;;;;;;5033526;28;20455;-89
2021/01/31 07:44:59;;;;;;;13.20;10.10;;;2.80;99.90;;;;;;5025775;28;20452;-89
2021/01/31 07:47:26;;;;;;;14.67;10.10;;;;;;;;;;5021182;28;20484;-94
2021/01/31 07:50:20;;;;;;;11.03;9.00;;;2.20;99.90;;;;;;5019992;28;20457;-92
2021/01/31 07:52:52;;;;;;;13.70;9.90;;;2.70;99.90;;;;;;5017410;28;20462;-94
2021/01/31 07:55:38;;;;;;;12.10;9.07;;;2.00;99.90;;;;;;5017112;28;20445;-93
2021/01/31 07:58:38;;;;;;;12.10;8.60;;;2.80;99.90;;;;;;5025349;28;20553;-92
2021/01/31 08:01:11;;;;;;;13.13;9.20;;;2.10;99.90;;;;;;5029779;28;20447;-91
2021/01/31 08:03:39;;;;;;;12.20;9.07;;;2.20;99.90;;;;;;5043163;28;20440;-92
2021/01/31 08:06:09;;;;;;;12.87;9.20;;;2.50;99.90;;;;;;5033771;28;20451;-93
2021/01/31 08:08:46;;;;;;;14.07;9.40;;;2.20;99.90;;;;;;5016515;28;20552;-92
2021/01/31 08:11:52;;;;;;;11.40;8.83;;;2.10;99.90;;;;;;5016482;28;20432;-93
2021/01/31 08:14:56;;;;;;;13.30;10.23;;;2.60;99.90;;;;;;5022035;28;20970;-90
2021/01/31 08:17:38;;;;;;;12.30;8.90;;;;;;;;;;5030068;28;20440;-92
2021/01/31 08:20:55;;;;;;;17.00;10.43;;;2.50;99.90;;;;;;5016926;28;20456;-92
2021/01/31 08:23:47;;;;;;;15.60;10.30;;;2.50;99.90;;;;;;5017972;28;20928;-92
2021/01/31 08:26:42;;;;;;;15.23;10.23;;;2.40;99.90;;;;;;5021380;28;20457;-94
2021/01/31 08:29:28;;;;;;;13.80;9.37;;;2.60;99.90;;;;;;5014370;28;20456;-92
2021/01/31 08:32:08;;;;;;;12.30;8.90;;;2.40;99.90;;;;;;5019010;28;20452;-92
2021/01/31 08:35:09;;;;;;;11.63;9.03;;;2.30;99.90;;;;;;5020894;28;20471;-92
2021/01/31 08:37:36;;;;;;;11.10;9.17;;;;;;;;;;5019099;28;20452;-92
2021/01/31 08:40:19;;;;;;;11.40;9.20;;;2.40;99.90;;;;;;5011849;28;20452;-90
2021/01/31 08:42:52;;;;;;;13.30;9.97;;;2.60;99.90;;;;;;5014116;28;20452;-90
2021/01/31 08:45:19;;;;;;;12.90;9.40;;;;;;;;;;5014410;28;20503;-90
2021/01/31 08:47:45;;;;;;;14.40;9.90;;;2.10;99.90;;;;;;5014394;28;20496;-94
2021/01/31 08:50:17;;;;;;;15.00;10.77;;;2.60;99.90;;;;;;5019823;28;20901;-92
2021/01/31 08:52:48;;;;;;;11.33;8.77;;;2.50;99.90;;;;;;5011065;28;20465;-90
2021/01/31 08:55:23;;;;;;;11.40;9.23;;;1.60;99.90;;;;;;5012888;28;20452;-89
2021/01/31 08:58:00;;;;;;;11.90;8.70;;;2.60;99.90;;;;;;5013980;28;20488;-89
2021/01/31 09:00:28;;;;;;;10.80;8.87;;;2.40;99.90;;;;;;5014129;28;20455;-91
2021/01/31 09:02:55;;;;;;;12.30;9.00;;;;;;;;;;5014157;28;20467;-92
2021/01/31 09:05:21;;;;;;;13.57;9.67;;;;;;;;;;5014094;28;20448;-93
2021/01/31 09:07:50;;;;;;;13.30;8.43;;;2.90;99.90;;;;;;5014572;28;20495;-90
2021/01/31 09:10:31;;;;;;;12.30;9.53;;;2.90;99.90;;;;;;5013672;28;20453;-92
2021/01/31 09:13:15;;;;;;;10.87;8.10;;;2.90;99.90;;;;;;5014450;28;20951;-93
2021/01/31 09:15:42;;;;;;;12.00;8.93;;;2.30;99.90;;;;;;5014814;28;20951;-92
2021/01/31 09:18:16;;;;;;;11.50;8.20;;;3.00;99.90;;;;;;5014064;28;20452;-92
2021/01/31 09:20:42;;;;;;;9.83;8.10;;;;;;;;;;5014429;28;20452;-92
2021/01/31 09:23:14;;;;;;;11.30;9.23;;;3.00;99.90;;;;;;5014428;28;20857;-92
2021/01/31 09:25:42;;;;;;;11.93;9.20;;;2.80;99.90;;;;;;5013614;28;20444;-93
2021/01/31 09:28:12;;;;;;;9.87;7.77;;;2.90;99.90;;;;;;5014245;28;20587;-92
2021/01/31 09:30:40;;;;;;;8.70;7.30;;;2.90;99.90;;;;;;5016497;28;20453;-88
2021/01/31 09:33:10;;;;;;;8.80;7.90;;;3.00;99.90;;;;;;5024679;28;20850;-91
2021/01/31 09:35:38;;;;;;;10.47;8.30;;;3.00;99.90;;;;;;5014984;28;20471;-90
2021/01/31 09:38:11;;;;;;;10.83;8.60;;;3.20;99.90;;;;;;5013877;28;20452;-92
2021/01/31 09:40:40;;;;;;;10.87;9.03;;;3.00;99.90;;;;;;5012796;28;20475;-91
2021/01/31 09:43:10;;;;;;;11.90;9.70;;;3.00;99.90;;;;;;5013703;28;20455;-91
2021/01/31 09:45:40;;;;;;;13.73;9.90;;;3.30;99.90;;;;;;5009691;28;20444;-91
2021/01/31 09:48:08;;;;;;;13.53;9.90;;;3.10;99.90;;;;;;5013712;28;20565;-90
2021/01/31 09:50:35;;;;;;;10.90;9.03;;;3.20;99.90;;;;;;5011508;28;20449;-90
2021/01/31 09:53:02;;;;;;;16.80;14.60;;;;;;;;;;5013716;28;21011;-90
2021/01/31 09:55:40;;;;;;;12.53;10.97;;;3.20;99.90;;;;;;5013026;28;20460;-91
2021/01/31 09:58:18;;;;;;;20.77;12.00;;;3.10;99.90;;;;;;5013846;28;20831;-90
2021/01/31 10:00:44;;;;;;;10.83;9.03;;;;;;;;;;5014016;28;20447;-92
2021/01/31 10:03:22;;;;;;;9.27;8.13;;;3.20;99.90;;;;;;5014850;28;20474;-93
2021/01/31 10:05:50;;;;;;;10.90;9.17;;;;;;;;;;5014335;28;21014;-93
2021/01/31 10:08:18;;;;;;;13.77;10.70;;;;;;;;;;5015022;28;20491;-94
2021/01/31 10:10:46;;;;;;;16.03;11.50;;;;;;;;;;5014402;28;20459;-92
2021/01/31 10:13:17;;;;;;;12.50;9.50;;;3.20;99.90;;;;;;5014535;28;20452;-92
2021/01/31 10:15:51;;;;;;;17.33;15.43;;;3.20;99.90;;;;;;5015254;28;20452;-93
2021/01/31 10:18:27;;;;;;;9.90;8.03;;;3.30;99.90;;;;;;5014720;28;20455;-95
2021/01/31 10:21:13;;;;;;;12.70;10.00;;;3.30;99.90;;;;;;5018460;28;20567;-95
2021/01/31 10:23:39;;;;;;;10.37;9.13;;;;;;;;;;5017860;28;20464;-93
2021/01/31 10:26:07;;;;;;;12.00;9.43;;;;;;;;;;5017612;28;20456;-94
2021/01/31 10:28:37;;;;;;;11.80;8.87;;;3.50;99.90;;;;;;5019490;28;20555;-91
2021/01/31 10:31:04;;;;;;;13.77;9.10;;;;;;;;;;5017174;28;20452;-90
2021/01/31 10:33:41;;;;;;;10.10;8.70;;;3.80;99.90;;;;;;5020915;28;20448;-91
2021/01/31 10:36:16;;;;;;;13.33;10.73;;;3.70;99.90;;;;;;5018208;28;20449;-92
2021/01/31 10:38:43;;;;;;;14.80;9.70;;;3.60;99.90;;;;;;5016512;28;20444;-91
2021/01/31 10:41:11;;;;;;;13.93;10.17;;;;;;;;;;5016767;28;20456;-92
2021/01/31 10:43:39;;;;;;;13.00;10.20;;;;;;;;;;5018236;28;20459;-94
2021/01/31 10:46:05;;;;;;;11.80;9.60;;;;;;;;;;5018594;28;20491;-93
2021/01/31 10:48:32;;;;;;;12.50;10.60;;;;;;;;;;5018509;28;20483;-94
2021/01/31 10:50:59;;;;;;;13.63;10.67;;;;;;;;;;5017646;28;20437;-93
2021/01/31 10:53:25;;;;;;;12.13;8.73;;;;;;;;;;5018013;28;20447;-95
2021/01/31 10:55:52;;;;;;;14.80;11.20;;;;;;;;;;5017068;28;20526;-93
2021/01/31 10:58:18;;;;;;;14.10;9.87;;;;;;;;;;5017884;28;20476;-94
2021/01/31 11:00:46;;;;;;;12.63;9.73;;;;;;;;;;5037026;28;20442;-93
2021/01/31 11:03:12;;;;;;;11.23;9.70;;;;;;;;;;5031303;28;20512;-93
2021/01/31 11:05:39;;;;;;;11.13;8.73;;;;;;;;;;5028043;28;20502;-92
2021/01/31 11:08:06;;;;;;;13.20;9.90;;;;;;;;;;5021445;28;20488;-95
2021/01/31 11:10:32;;;;;;;11.33;8.90;;;;;;;;;;5018717;28;20463;-93
2021/01/31 11:13:02;;;;;;;11.93;9.50;;;;;;;;;;5022501;28;20453;-96
2021/01/31 11:15:29;;;;;;;12.50;10.23;;;;;;;;;;5021775;28;20457;-93
2021/01/31 11:17:56;;;;;;;12.60;8.63;;;;;;;;;;5017719;28;20517;-93
2021/01/31 11:20:23;;;;;;;13.07;9.63;;;;;;;;;;5016740;28;20457;-93
2021/01/31 11:22:49;;;;;;;15.43;12.17;;;;;;;;;;5017859;28;20456;-93
2021/01/31 11:25:16;;;;;;;23.67;17.03;;;;;;;;;;5016623;28;20448;-94
2021/01/31 11:27:43;;;;;;;11.97;8.67;;;;;;;;;;5017380;28;20606;-94
2021/01/31 11:30:10;;;;;;;20.00;14.90;;;;;;;;;;5017745;28;20986;-95
2021/01/31 11:32:37;;;;;;;11.07;9.07;;;;;;;;;;5017202;28;20499;-95
2021/01/31 11:35:05;;;;;;;84.67;49.17;;;;;;;;;;5017441;28;20451;-92
2021/01/31 11:37:31;;;;;;;16.30;11.70;;;;;;;;;;5017314;28;20547;-95
2021/01/31 11:39:58;;;;;;;26.33;23.63;;;;;;;;;;5018317;28;20793;-94
2021/01/31 11:42:25;;;;;;;24.70;22.30;;;;;;;;;;5017171;28;20449;-93
2021/01/31 11:44:51;;;;;;;14.50;13.00;;;;;;;;;;5017905;28;20826;-94
2021/01/31 11:47:18;;;;;;;17.33;13.40;;;;;;;;;;5017568;28;20492;-94
2021/01/31 11:49:46;;;;;;;12.03;10.13;;;;;;;;;;5018281;28;20452;-95
2021/01/31 11:52:14;;;;;;;13.23;10.10;;;4.60;99.90;;;;;;5019177;28;20433;-94
2021/01/31 11:54:40;;;;;;;12.33;8.90;;;;;;;;;;5020956;28;20547;-95
2021/01/31 11:57:07;;;;;;;12.20;10.20;;;;;;;;;;5021018;28;20474;-94
2021/01/31 11:59:34;;;;;;;13.27;9.73;;;;;;;;;;5019274;28;20475;-90
2021/01/31 12:02:04;;;;;;;14.30;10.50;;;4.80;99.90;;;;;;5021766;28;20425;-93
2021/01/31 12:04:31;;;;;;;15.50;13.87;;;;;;;;;;5025097;28;20440;-93
2021/01/31 12:06:57;;;;;;;16.77;12.27;;;;;;;;;;5018128;28;21085;-89
2021/01/31 12:09:24;;;;;;;14.60;11.10;;;4.40;99.90;;;;;;5016616;28;20464;-91
2021/01/31 12:11:51;;;;;;;14.00;10.00;;;;;;;;;;5016291;28;20444;-91
2021/01/31 12:14:18;;;;;;;12.13;9.57;;;;;;;;;;5016337;28;20459;-91
2021/01/31 12:16:44;;;;;;;12.50;9.20;;;;;;;;;;5016193;28;20449;-91
2021/01/31 12:19:11;;;;;;;13.90;9.80;;;;;;;;;;5011130;28;20444;-92
2021/01/31 12:21:38;;;;;;;12.23;10.27;;;;;;;;;;5015556;28;20448;-91
2021/01/31 12:24:05;;;;;;;14.33;11.80;;;4.10;99.90;;;;;;5013863;28;20456;-92
2021/01/31 12:26:32;;;;;;;21.40;16.63;;;4.40;99.90;;;;;;5015978;28;20978;-91
2021/01/31 12:29:00;;;;;;;19.43;13.83;;;;;;;;;;5024255;28;20498;-90
2021/01/31 12:31:27;;;;;;;16.03;11.50;;;;;;;;;;5034119;28;20449;-91
2021/01/31 12:33:53;;;;;;;10.77;9.10;;;;;;;;;;5020180;28;20845;-91
2021/01/31 12:36:20;;;;;;;14.90;10.37;;;;;;;;;;5018089;28;20445;-94
2021/01/31 12:38:47;;;;;;;11.47;9.20;;;;;;;;;;5018490;28;20539;-95
2021/01/31 12:41:14;;;;;;;15.30;11.47;;;;;;;;;;5015173;28;20506;-92
2021/01/31 12:43:41;;;;;;;12.10;9.80;;;4.30;99.90;;;;;;5014625;28;20932;-95
2021/01/31 12:46:08;;;;;;;11.80;9.47;;;;;;;;;;5015251;28;20521;-91
2021/01/31 12:48:34;;;;;;;17.53;11.77;;;;;;;;;;5016932;28;20507;-93
2021/01/31 12:51:01;;;;;;;13.83;10.63;;;;;;;;;;5028209;28;20453;-93
2021/01/31 12:53:28;;;;;;;15.47;11.87;;;;;;;;;;5026162;28;20486;-96
2021/01/31 12:55:54;;;;;;;17.17;9.30;;;;;;;;;;5019131;28;20505;-94
2021/01/31 12:58:21;;;;;;;13.23;9.90;;;;;;;;;;5021017;28;20495;-94
2021/01/31 13:00:48;;;;;;;13.23;8.70;;;4.10;99.90;;;;;;5026315;28;20468;-93
2021/01/31 13:03:18;;;;;;;11.67;9.80;;;4.10;99.90;;;;;;5036773;22;20492;-93
2021/01/31 13:05:45;;;;;;;19.17;13.40;;;;;;;;;;5028933;28;20464;-93
2021/01/31 13:08:12;;;;;;;13.87;10.20;;;;;;;;;;5055155;22;20519;-96
2021/01/31 13:10:39;;;;;;;14.00;9.10;;;;;;;;;;5021283;28;20528;-95
2021/01/31 13:13:05;;;;;;;24.20;18.37;;;;;;;;;;5024417;28;20491;-93
2021/01/31 13:15:32;;;;;;;25.87;19.70;;;;;;;;;;5024833;28;20448;-94
2021/01/31 13:18:05;;;;;;;15.63;11.53;;;;;;;;;;5021768;28;20491;-96
2021/01/31 13:20:32;;;;;;;15.07;9.80;;;;;;;;;;5005020;28;20449;-95
2021/01/31 13:22:59;;;;;;;18.73;13.10;;;4.00;99.90;;;;;;5008479;28;20477;-96
2021/01/31 13:26:06;;;;;;;23.33;14.70;;;4.10;99.90;;;;;;5007821;28;20457;-94
2021/01/31 13:28:33;;;;;;;29.47;22.40;;;;;;;;;;5004865;28;20560;-94
2021/01/31 13:31:00;;;;;;;17.67;13.57;;;;;;;;;;4959416;28;20474;-95
2021/01/31 13:33:27;;;;;;;21.07;14.67;;;4.00;99.90;;;;;;4999828;28;20781;-94
2021/01/31 13:35:54;;;;;;;23.87;17.50;;;4.30;99.90;;;;;;4995963;28;20461;-95
2021/01/31 13:38:29;;;;;;;13.20;9.23;;;4.00;99.90;;;;;;4995781;28;20548;-94
2021/01/31 13:40:56;;;;;;;16.90;12.60;;;;;;;;;;4993367;28;20460;-92
2021/01/31 13:43:23;;;;;;;21.63;14.87;;;;;;;;;;4996771;28;20483;-96